Terminal Aerodrome Forecast
Issued by NWS Birmingham, AL

Home | Current Version | Previous Version | Text Only | Print | Product List | Glossary On
Versions: 1 2 3 4 5 6 7 8 9 10 11 12 13
000
FTUS44 KBMX 252336
TAFBHM
TAF
KBHM 252336Z 2600/2624 06006KT P6SM TSRA SCT050CB SCT110
     FM260015 08002KT P6SM SCT110 SCT250
     FM261600 07006KT P6SM SCT050 SCT250=

USA.gov is the U.S. government's official web portal to all federal, state and local government web resources and services.